createdAt,value
2023-08-07T00:02:29.219Z,12.94
2023-08-07T00:04:56.352Z,12.97
2023-08-07T00:07:31.702Z,12.81
2023-08-07T00:09:58.211Z,12.88
2023-08-07T00:12:24.911Z,12.82
2023-08-07T00:14:59.345Z,12.91
2023-08-07T00:17:29.064Z,12.91
2023-08-07T00:19:56.328Z,12.87
2023-08-07T00:22:28.509Z,12.83
2023-08-07T00:24:54.970Z,12.86
2023-08-07T00:27:24.014Z,12.98
2023-08-07T00:29:50.574Z,12.91
2023-08-07T00:32:17.243Z,13.01
2023-08-07T00:34:43.710Z,12.89
2023-08-07T00:37:10.223Z,13.00
2023-08-07T00:39:36.622Z,13.05
2023-08-07T00:42:03.216Z,12.98
2023-08-07T00:44:32.918Z,13.05
2023-08-07T00:47:04.252Z,12.88
2023-08-07T00:49:30.980Z,13.03
2023-08-07T00:52:00.473Z,13.15
2023-08-07T00:54:27.354Z,13.23
2023-08-07T00:56:54.243Z,13.18
2023-08-07T00:59:21.133Z,13.02
2023-08-07T01:01:47.709Z,13.10
2023-08-07T01:04:15.622Z,13.14
2023-08-07T01:06:42.270Z,12.99
2023-08-07T01:09:09.098Z,13.08
2023-08-07T01:12:01.092Z,13.10
2023-08-07T01:14:50.405Z,13.15
2023-08-07T01:17:20.493Z,13.13
2023-08-07T01:19:48.510Z,12.95
2023-08-07T01:22:17.625Z,13.03
2023-08-07T01:24:46.235Z,12.96
2023-08-07T01:27:19.034Z,13.16
2023-08-07T01:30:07.429Z,13.22
2023-08-07T01:33:04.533Z,13.18
2023-08-07T01:35:37.020Z,13.22
2023-08-07T01:38:04.769Z,13.17
2023-08-07T01:40:34.479Z,13.14
2023-08-07T01:43:01.557Z,13.11
2023-08-07T01:45:29.842Z,13.13
2023-08-07T01:47:57.160Z,13.13
2023-08-07T01:50:26.969Z,13.11
2023-08-07T01:52:53.951Z,13.17
2023-08-07T01:55:22.080Z,13.17
2023-08-07T01:57:48.710Z,13.17
2023-08-07T02:00:18.010Z,12.95
2023-08-07T02:02:45.752Z,13.05
2023-08-07T02:05:12.310Z,12.98
2023-08-07T02:07:38.846Z,12.95
2023-08-07T02:10:05.806Z,12.88
2023-08-07T02:12:32.456Z,12.77
2023-08-07T02:14:59.736Z,12.77
2023-08-07T02:17:28.987Z,12.65
2023-08-07T02:19:58.417Z,12.65
2023-08-07T02:22:28.322Z,12.45
2023-08-07T02:24:54.777Z,12.68
2023-08-07T02:27:21.296Z,12.63
2023-08-07T02:29:47.752Z,12.70
2023-08-07T02:32:14.131Z,12.56
2023-08-07T02:34:40.812Z,12.63
2023-08-07T02:37:07.336Z,12.64
2023-08-07T02:39:33.870Z,12.65
2023-08-07T02:42:00.567Z,12.68
2023-08-07T02:44:26.942Z,12.56
2023-08-07T02:46:53.474Z,12.47
2023-08-07T02:49:20.387Z,12.57
2023-08-07T02:51:47.007Z,12.61
2023-08-07T02:54:13.638Z,12.52
2023-08-07T02:56:40.281Z,12.56
2023-08-07T02:59:06.976Z,12.49
2023-08-07T03:01:36.463Z,12.50
2023-08-07T03:04:02.996Z,12.56
2023-08-07T03:06:29.553Z,12.58
2023-08-07T03:08:56.747Z,12.56
2023-08-07T03:11:23.331Z,12.57
2023-08-07T03:13:49.880Z,12.62
2023-08-07T03:16:16.795Z,12.63
2023-08-07T03:18:43.455Z,12.47
2023-08-07T03:21:09.935Z,12.59
2023-08-07T03:23:39.485Z,12.74
2023-08-07T03:26:18.301Z,12.84
2023-08-07T03:28:48.575Z,12.85
2023-08-07T03:31:16.030Z,13.01
2023-08-07T03:33:42.706Z,13.16
2023-08-07T03:36:09.355Z,13.13
2023-08-07T03:38:38.697Z,13.29
2023-08-07T03:41:05.288Z,13.50
2023-08-07T03:43:31.829Z,13.47
2023-08-07T03:46:01.478Z,13.52
2023-08-07T03:48:29.428Z,13.51
2023-08-07T03:51:06.211Z,13.56
2023-08-07T03:53:32.834Z,13.58
2023-08-07T03:55:59.322Z,13.65
2023-08-07T03:58:28.550Z,13.52
2023-08-07T04:00:58.236Z,13.42
2023-08-07T04:03:27.307Z,13.45
2023-08-07T04:05:55.305Z,13.53
2023-08-07T04:08:23.912Z,13.49
2023-08-07T04:11:03.998Z,13.40
2023-08-07T04:13:31.092Z,13.30
2023-08-07T04:15:58.622Z,13.16
2023-08-07T04:18:28.371Z,13.13
2023-08-07T04:20:58.399Z,13.20
2023-08-07T04:23:28.209Z,13.17
2023-08-07T04:25:58.111Z,13.18
2023-08-07T04:28:26.886Z,13.08
2023-08-07T04:30:53.685Z,13.15
2023-08-07T04:33:27.456Z,13.23
2023-08-07T04:36:14.374Z,13.11
2023-08-07T04:38:46.844Z,13.08
2023-08-07T04:41:13.482Z,13.31
2023-08-07T04:43:39.944Z,13.14
2023-08-07T04:46:06.348Z,13.33
2023-08-07T04:48:35.474Z,13.33
2023-08-07T04:51:02.980Z,13.26
2023-08-07T04:53:29.512Z,13.28
2023-08-07T04:55:59.220Z,13.32
2023-08-07T04:58:31.916Z,13.34
2023-08-07T05:00:59.565Z,13.39
2023-08-07T05:03:31.525Z,13.40
2023-08-07T05:06:04.039Z,13.56
2023-08-07T05:08:30.641Z,13.34
2023-08-07T05:10:57.106Z,13.30
2023-08-07T05:13:29.108Z,13.40
2023-08-07T05:15:55.638Z,13.33
2023-08-07T05:18:29.602Z,13.41
2023-08-07T05:21:01.512Z,13.27
2023-08-07T05:23:42.444Z,13.39
2023-08-07T05:26:11.965Z,13.33
2023-08-07T05:28:54.461Z,13.41
2023-08-07T05:31:32.153Z,13.29
2023-08-07T05:34:09.583Z,13.47
2023-08-07T05:36:43.233Z,13.63
2023-08-07T05:39:12.154Z,13.55
2023-08-07T05:41:38.696Z,13.87
2023-08-07T05:44:08.321Z,14.01
2023-08-07T05:46:34.907Z,14.27
2023-08-07T05:49:01.921Z,14.23
2023-08-07T05:51:28.653Z,14.06
2023-08-07T05:53:58.218Z,13.67
2023-08-07T05:56:27.682Z,13.46
2023-08-07T05:58:56.330Z,13.53
2023-08-07T06:01:28.392Z,13.27
2023-08-07T06:04:11.470Z,13.33
2023-08-07T06:06:38.262Z,13.16
2023-08-07T06:09:05.061Z,13.37
2023-08-07T06:11:32.440Z,13.35
2023-08-07T06:14:01.702Z,13.19
2023-08-07T06:16:28.683Z,13.38
2023-08-07T06:18:58.410Z,13.46
2023-08-07T06:21:28.528Z,13.42
2023-08-07T06:23:58.230Z,13.37
2023-08-07T06:27:05.017Z,13.46
2023-08-07T06:29:33.169Z,13.52
2023-08-07T06:34:56.586Z,13.72
2023-08-07T06:38:36.624Z,13.86
2023-08-07T06:40:43.347Z,13.96
2023-08-07T06:43:12.072Z,14.07
2023-08-07T06:46:03.303Z,14.39
2023-08-07T06:48:37.814Z,14.33
2023-08-07T06:51:08.454Z,14.24
2023-08-07T06:53:34.893Z,14.31
2023-08-07T06:56:11.797Z,14.47
2023-08-07T06:59:32.207Z,14.57
2023-08-07T07:02:05.170Z,14.19
2023-08-07T07:04:41.644Z,14.12
2023-08-07T07:07:13.981Z,14.02
2023-08-07T07:09:56.938Z,13.98
2023-08-07T07:12:26.204Z,13.95
2023-08-07T07:15:03.684Z,13.94
2023-08-07T07:17:32.193Z,14.11
2023-08-07T07:20:05.242Z,14.10
2023-08-07T07:26:17.273Z,14.12
2023-08-07T07:29:08.510Z,14.13
2023-08-07T07:32:40.876Z,13.86
2023-08-07T07:35:13.599Z,13.48
2023-08-07T07:40:30.267Z,13.51
2023-08-07T07:43:37.301Z,13.80
2023-08-07T07:47:00.351Z,14.54
2023-08-07T07:49:09.536Z,15.65
2023-08-07T07:51:41.783Z,16.36
2023-08-07T07:54:14.964Z,16.72
2023-08-07T07:56:49.115Z,17.06
2023-08-07T07:59:15.645Z,17.59
2023-08-07T08:02:21.268Z,17.97
2023-08-07T08:04:48.026Z,18.00
2023-08-07T08:07:17.494Z,18.07
2023-08-07T08:10:02.564Z,18.49
2023-08-07T08:12:45.775Z,18.63
2023-08-07T08:15:20.205Z,18.16
2023-08-07T08:18:10.123Z,18.08
2023-08-07T08:20:40.224Z,17.33
2023-08-07T08:23:21.969Z,17.11
2023-08-07T08:26:27.122Z,17.36
2023-08-07T08:29:20.058Z,18.09
2023-08-07T08:31:54.642Z,18.16
2023-08-07T08:35:19.202Z,18.25
2023-08-07T08:37:44.477Z,18.55
2023-08-07T08:40:25.298Z,18.26
2023-08-07T08:42:52.140Z,17.89
2023-08-07T08:46:16.258Z,18.53
2023-08-07T08:48:47.955Z,18.95
2023-08-07T08:51:22.431Z,19.05
2023-08-07T08:53:49.211Z,19.23
2023-08-07T08:56:20.269Z,19.45
2023-08-07T08:58:47.447Z,19.40
2023-08-07T09:01:14.284Z,19.91
2023-08-07T09:03:41.236Z,19.68
2023-08-07T09:06:08.374Z,19.92
2023-08-07T09:09:00.497Z,19.46
2023-08-07T09:11:28.993Z,20.22
2023-08-07T09:13:59.767Z,19.92
2023-08-07T09:16:31.151Z,19.88
2023-08-07T09:19:05.868Z,20.45
2023-08-07T09:21:47.078Z,20.72
2023-08-07T09:24:38.773Z,20.58
2023-08-07T09:34:15.626Z,19.85
2023-08-07T09:36:42.576Z,19.99
2023-08-07T09:39:12.586Z,18.83
2023-08-07T09:41:57.842Z,19.86
2023-08-07T09:48:39.763Z,22.24
2023-08-07T09:57:48.612Z,20.52
2023-08-07T10:00:36.524Z,19.89
2023-08-07T10:10:17.995Z,16.90
2023-08-07T10:12:47.043Z,16.75
2023-08-07T10:15:14.548Z,16.71
2023-08-07T10:18:15.266Z,16.43
2023-08-07T10:20:45.660Z,16.44
2023-08-07T10:23:18.477Z,16.45
2023-08-07T10:26:12.556Z,16.05
2023-08-07T10:28:57.309Z,15.83
2023-08-07T10:31:36.376Z,16.04
2023-08-07T10:56:01.943Z,16.84
2023-08-07T11:03:17.028Z,18.90
2023-08-07T11:09:57.115Z,19.54
2023-08-07T11:22:22.396Z,19.48
2023-08-07T11:25:00.782Z,18.92
2023-08-07T11:27:46.460Z,18.36
2023-08-07T11:36:56.646Z,17.43
2023-08-07T11:57:46.870Z,21.15
2023-08-07T12:14:46.832Z,19.48
2023-08-07T12:48:11.919Z,19.34
2023-08-07T12:55:03.162Z,18.49
2023-08-07T13:33:05.808Z,19.82
2023-08-07T13:35:34.629Z,18.99
2023-08-07T13:38:04.388Z,18.52
2023-08-07T13:40:36.648Z,18.67
2023-08-07T13:43:28.562Z,19.23
2023-08-07T13:45:59.770Z,19.59
2023-08-07T13:48:31.817Z,19.82
2023-08-07T13:51:03.287Z,19.58
2023-08-07T13:53:35.018Z,19.98
2023-08-07T13:56:07.516Z,19.31
2023-08-07T13:58:34.299Z,18.64
2023-08-07T14:01:23.807Z,18.31
2023-08-07T14:03:53.538Z,19.38
2023-08-07T14:06:51.546Z,18.57
2023-08-07T14:09:19.511Z,18.49
2023-08-07T14:14:37.404Z,18.15
2023-08-07T14:17:07.511Z,19.29
2023-08-07T14:19:45.449Z,18.89
2023-08-07T14:22:44.069Z,18.56
2023-08-07T14:25:13.592Z,18.00
2023-08-07T14:27:43.737Z,17.58
2023-08-07T14:30:14.053Z,17.33
2023-08-07T14:33:13.609Z,17.17
2023-08-07T14:35:49.743Z,17.93
2023-08-07T14:38:27.987Z,18.07
2023-08-07T14:41:34.363Z,17.83
2023-08-07T14:44:11.084Z,17.97
2023-08-07T14:46:43.461Z,17.58
2023-08-07T14:49:13.033Z,18.21
2023-08-07T14:51:44.560Z,18.64
2023-08-07T14:54:16.409Z,19.36
2023-08-07T14:56:46.748Z,18.65
2023-08-07T14:59:18.087Z,18.35
2023-08-07T15:01:44.834Z,18.17
2023-08-07T15:04:12.954Z,18.09
2023-08-07T15:06:54.428Z,18.11
2023-08-07T15:09:54.256Z,18.12
2023-08-07T15:12:20.845Z,18.26
2023-08-07T15:14:51.928Z,18.15
2023-08-07T15:17:24.250Z,18.23
2023-08-07T15:19:52.449Z,18.14
2023-08-07T15:22:21.422Z,18.09
2023-08-07T15:24:53.976Z,18.18
2023-08-07T15:27:27.488Z,18.22
2023-08-07T15:30:05.540Z,18.16
2023-08-07T15:32:38.310Z,17.70
2023-08-07T15:35:11.060Z,17.44
2023-08-07T15:37:42.665Z,17.63
2023-08-07T15:40:09.654Z,17.50
2023-08-07T15:42:36.208Z,17.57
2023-08-07T15:45:13.729Z,17.90
2023-08-07T15:47:43.513Z,17.44
2023-08-07T15:50:16.201Z,16.98
2023-08-07T15:52:43.434Z,17.42
2023-08-07T15:55:17.574Z,17.99
2023-08-07T15:57:44.046Z,18.04
2023-08-07T16:00:12.881Z,17.85
2023-08-07T16:02:44.352Z,18.11
2023-08-07T16:05:11.528Z,18.00
2023-08-07T16:07:40.417Z,17.93
2023-08-07T16:10:07.722Z,18.26
2023-08-07T16:12:34.240Z,18.43
2023-08-07T16:15:00.935Z,17.78
2023-08-07T16:17:27.601Z,17.69
2023-08-07T16:19:54.189Z,17.44
2023-08-07T16:22:20.652Z,17.14
2023-08-07T16:24:47.388Z,17.40
2023-08-07T16:27:14.199Z,17.07
2023-08-07T16:29:40.829Z,17.25
2023-08-07T16:32:07.496Z,17.14
2023-08-07T16:34:37.314Z,16.81
2023-08-07T16:37:04.293Z,16.59
2023-08-07T16:39:31.037Z,16.66
2023-08-07T16:41:57.643Z,16.70
2023-08-07T16:44:24.170Z,16.87
2023-08-07T16:46:50.674Z,16.56
2023-08-07T16:49:17.345Z,16.68
2023-08-07T16:51:47.262Z,16.40
2023-08-07T16:54:13.799Z,16.58
2023-08-07T16:56:40.483Z,16.61
2023-08-07T16:59:07.124Z,16.42
2023-08-07T17:01:33.790Z,16.49
2023-08-07T17:04:00.486Z,16.49
2023-08-07T17:06:29.518Z,16.63
2023-08-07T17:08:56.120Z,16.50
2023-08-07T17:11:22.647Z,16.53
2023-08-07T17:13:49.207Z,16.42
2023-08-07T17:16:15.726Z,16.62
2023-08-07T17:18:56.046Z,16.56
2023-08-07T17:21:28.196Z,16.49
2023-08-07T17:23:54.767Z,16.26
2023-08-07T17:26:21.524Z,16.18
2023-08-07T17:28:48.120Z,16.17
2023-08-07T17:31:14.893Z,16.16
2023-08-07T17:33:44.385Z,16.19
2023-08-07T17:36:10.950Z,15.99
2023-08-07T17:38:37.770Z,15.90
2023-08-07T17:41:07.282Z,15.95
2023-08-07T17:43:33.934Z,16.10
2023-08-07T17:46:00.641Z,16.06
2023-08-07T17:48:27.388Z,16.10
2023-08-07T17:50:53.917Z,16.55
2023-08-07T17:53:21.767Z,16.22
2023-08-07T17:55:48.316Z,16.18
2023-08-07T17:58:14.982Z,16.25
2023-08-07T18:00:44.120Z,16.05
2023-08-07T18:03:11.599Z,15.74
2023-08-07T18:05:38.873Z,15.90
2023-08-07T18:11:08.991Z,15.47
2023-08-07T18:13:46.922Z,15.35
2023-08-07T18:17:06.733Z,15.34
2023-08-07T18:19:57.551Z,15.14
2023-08-07T18:22:37.372Z,15.14
2023-08-07T18:25:15.612Z,14.99
2023-08-07T18:27:55.593Z,14.78
2023-08-07T18:30:31.727Z,14.80
2023-08-07T18:33:26.219Z,14.79
2023-08-07T18:36:09.738Z,14.70
2023-08-07T18:38:43.482Z,14.44
2023-08-07T18:41:13.185Z,14.36
2023-08-07T18:43:46.552Z,14.29
2023-08-07T18:49:17.107Z,14.20
2023-08-07T18:51:48.931Z,14.35
2023-08-07T18:54:27.936Z,14.13
2023-08-07T18:57:03.175Z,14.21
2023-08-07T18:59:30.989Z,14.03
2023-08-07T19:01:57.586Z,14.07
2023-08-07T19:04:26.773Z,13.89
2023-08-07T19:06:58.684Z,14.02
2023-08-07T19:09:33.002Z,13.80
2023-08-07T19:12:01.475Z,13.90
2023-08-07T19:14:28.061Z,13.62
2023-08-07T19:16:54.694Z,13.60
2023-08-07T19:19:21.572Z,13.69
2023-08-07T19:21:48.156Z,13.70
2023-08-07T19:24:14.665Z,13.68
2023-08-07T19:26:41.397Z,13.54
2023-08-07T19:29:08.029Z,13.59
2023-08-07T19:31:34.629Z,13.33
2023-08-07T19:34:01.329Z,13.33
2023-08-07T19:36:30.649Z,13.29
2023-08-07T19:38:57.332Z,13.18
2023-08-07T19:41:23.874Z,13.31
2023-08-07T19:43:50.429Z,13.11
2023-08-07T19:46:17.004Z,13.28
2023-08-07T19:48:43.565Z,13.37
2023-08-07T19:51:10.326Z,13.38
2023-08-07T19:53:38.605Z,13.24
2023-08-07T19:56:07.174Z,13.18
2023-08-07T19:58:34.100Z,13.03
2023-08-07T20:01:00.677Z,13.04
2023-08-07T20:03:27.352Z,13.17
2023-08-07T20:05:54.159Z,13.23
2023-08-07T20:08:20.776Z,13.00
2023-08-07T20:10:47.387Z,13.09
2023-08-07T20:13:16.285Z,13.12
2023-08-07T20:15:45.870Z,13.18
2023-08-07T20:18:12.451Z,12.97
2023-08-07T20:20:38.930Z,12.99
2023-08-07T20:23:08.420Z,12.98
2023-08-07T20:25:34.883Z,13.00
2023-08-07T20:28:01.477Z,13.00
2023-08-07T20:30:31.298Z,12.79
2023-08-07T20:32:59.198Z,12.92
2023-08-07T20:35:27.060Z,12.91
2023-08-07T20:37:53.787Z,12.81
2023-08-07T20:40:20.301Z,12.73
2023-08-07T20:42:46.901Z,12.83
2023-08-07T20:45:13.859Z,12.63
2023-08-07T20:47:41.778Z,12.49
2023-08-07T20:50:08.809Z,12.36
2023-08-07T20:52:36.588Z,12.18
2023-08-07T20:55:03.215Z,12.10
2023-08-07T20:57:32.868Z,12.17
2023-08-07T20:59:59.454Z,12.14
2023-08-07T21:02:26.133Z,12.10
2023-08-07T21:04:52.786Z,11.92
2023-08-07T21:07:19.443Z,11.92
2023-08-07T21:09:46.028Z,11.68
2023-08-07T21:12:12.555Z,11.65
2023-08-07T21:14:39.289Z,11.73
2023-08-07T21:17:06.160Z,11.60
2023-08-07T21:19:32.700Z,11.62
2023-08-07T21:21:59.949Z,11.64
2023-08-07T21:24:26.546Z,11.52
2023-08-07T21:26:53.229Z,11.68
2023-08-07T21:29:19.829Z,11.52
2023-08-07T21:31:46.580Z,11.57
2023-08-07T21:34:13.153Z,11.69
2023-08-07T21:36:39.680Z,11.39
2023-08-07T21:39:09.120Z,11.45
2023-08-07T21:41:36.717Z,11.67
2023-08-07T21:44:03.284Z,11.68
2023-08-07T21:46:29.690Z,11.73
2023-08-07T21:48:56.376Z,11.66
2023-08-07T21:51:23.021Z,11.72
2023-08-07T21:53:49.511Z,11.71
2023-08-07T21:56:16.150Z,11.67
2023-08-07T21:58:42.703Z,11.85
2023-08-07T22:01:11.845Z,11.83
2023-08-07T22:03:47.418Z,11.82
2023-08-07T22:06:14.560Z,12.10
2023-08-07T22:08:41.104Z,11.89
2023-08-07T22:11:07.656Z,12.02
2023-08-07T22:13:34.205Z,12.08
2023-08-07T22:16:00.982Z,12.17
2023-08-07T22:18:27.561Z,12.01
2023-08-07T22:20:54.283Z,12.20
2023-08-07T22:23:20.852Z,12.05
2023-08-07T22:25:48.292Z,12.10
2023-08-07T22:28:14.883Z,12.30
2023-08-07T22:30:43.975Z,12.17
2023-08-07T22:33:10.617Z,12.13
2023-08-07T22:35:37.216Z,12.37
2023-08-07T22:38:03.806Z,12.30
2023-08-07T22:40:30.464Z,12.26
2023-08-07T22:42:57.093Z,12.35
2023-08-07T22:45:23.595Z,12.47
2023-08-07T22:47:50.314Z,12.54
2023-08-07T22:50:19.086Z,12.37
2023-08-07T22:52:45.911Z,12.50
2023-08-07T22:55:14.192Z,12.49
2023-08-07T22:57:40.828Z,12.41
2023-08-07T23:00:08.103Z,12.62
2023-08-07T23:02:34.677Z,12.46
2023-08-07T23:05:01.632Z,12.42
2023-08-07T23:07:28.164Z,12.43
2023-08-07T23:09:54.990Z,12.60
2023-08-07T23:12:21.507Z,12.66
2023-08-07T23:14:48.055Z,12.65
2023-08-07T23:17:14.470Z,12.70
2023-08-07T23:19:41.016Z,12.64
2023-08-07T23:22:07.514Z,12.62
2023-08-07T23:24:33.959Z,12.48
2023-08-07T23:27:00.769Z,12.46
2023-08-07T23:29:27.415Z,12.48
2023-08-07T23:31:54.113Z,12.48
2023-08-07T23:34:20.862Z,12.51
2023-08-07T23:36:47.599Z,12.68
2023-08-07T23:39:14.170Z,12.68
2023-08-07T23:41:41.996Z,12.68
2023-08-07T23:44:08.570Z,12.75
2023-08-07T23:46:35.477Z,12.76
2023-08-07T23:49:07.142Z,13.05
2023-08-07T23:51:39.213Z,12.82
2023-08-07T23:54:05.836Z,12.97
2023-08-07T23:56:32.560Z,12.89
2023-08-07T23:58:59.254Z,12.75
